Terminal Aerodrome Forecast
Issued by NWS Paducah, KY

Home | Current Version | Previous Version | Text Only | Print | Product List | Glossary Off
Versions: 1 2 3 4 5 6 7 8 9 10 11 12 13 14 15 16 17 18 19 20 21 22

000
FTUS43 KPAH 032334
TAFPAH
TAF
KPAH 032334Z 0400/0424 22009KT 4SM -SHRA BR OVC005
     FM040300 36010KT 3SM -RA BR OVC003
     FM041400 01012G18KT 3SM -SNPL BR OVC004=

USA.gov is the U.S. government's official web portal to all federal, state and local government web resources and services.